Time;durP1;ratioP1;P1;durP2;ratioP2;P2;SDS_P1;SDS_P2;PMS_P1;PMS_P2;Temp;Humidity;BMP_temperature;BMP_pressure;BME280_temperature;BME280_humidity;BME280_pressure;Samples;Min_cycle;Max_cycle;Signal;HPM_P1;HPM_P2
2022/10/24 00:01:34;;;;;;;5.20;1.02;;;13.80;99.90;;;;;;5031067;28;20160;-47
2022/10/24 00:04:00;;;;;;;6.53;1.35;;;13.80;99.90;;;;;;5029622;28;20115;-46
2022/10/24 00:06:26;;;;;;;3.33;0.70;;;13.80;99.90;;;;;;5031044;28;20128;-44
2022/10/24 00:08:51;;;;;;;8.05;1.38;;;13.80;99.90;;;;;;5030798;28;20144;-46
2022/10/24 00:11:24;;;;;;;3.40;0.95;;;13.70;99.90;;;;;;5030646;28;20053;-45
2022/10/24 00:13:51;;;;;;;6.45;1.27;;;13.70;99.90;;;;;;5030566;28;20138;-45
2022/10/24 00:16:18;;;;;;;6.18;1.40;;;13.60;99.90;;;;;;5030137;28;20566;-47
2022/10/24 00:18:44;;;;;;;11.40;1.08;;;13.60;99.90;;;;;;5030248;28;20041;-46
2022/10/24 00:21:10;;;;;;;5.85;0.90;;;13.60;99.90;;;;;;5030329;28;20034;-47
2022/10/24 00:23:36;;;;;;;4.57;0.80;;;13.80;99.90;;;;;;5030217;28;20556;-45
2022/10/24 00:26:03;;;;;;;3.40;0.90;;;13.60;99.90;;;;;;5030006;28;20037;-45
2022/10/24 00:28:30;;;;;;;8.85;1.83;;;13.60;99.90;;;;;;5030800;28;20128;-46
2022/10/24 00:30:56;;;;;;;8.52;0.85;;;13.50;99.90;;;;;;5024177;28;20229;-45
2022/10/24 00:33:22;;;;;;;3.40;0.75;;;13.50;99.90;;;;;;5027482;28;20137;-45
2022/10/24 00:35:48;;;;;;;5.72;0.70;;;13.50;99.90;;;;;;5010665;28;20065;-45
2022/10/24 00:38:14;;;;;;;6.30;0.90;;;13.60;99.90;;;;;;5010553;28;20058;-47
2022/10/24 00:40:40;;;;;;;3.70;0.73;;;13.50;99.90;;;;;;5010615;28;20046;-45
2022/10/24 00:43:18;;;;;;;3.38;0.68;;;13.50;99.90;;;;;;5010355;28;20041;-45
2022/10/24 00:45:55;;;;;;;8.18;1.20;;;13.60;99.90;;;;;;5042484;28;20050;-45
2022/10/24 00:48:44;;;;;;;6.38;1.27;;;13.60;99.90;;;;;;5008768;28;20045;-45
2022/10/24 00:51:26;;;;;;;4.03;0.75;;;13.60;99.90;;;;;;5010069;28;20077;-44
2022/10/24 00:54:00;;;;;;;3.33;0.90;;;13.60;99.90;;;;;;5010072;28;20050;-44
2022/10/24 00:56:31;;;;;;;3.90;0.60;;;13.50;99.90;;;;;;5010299;28;20049;-45
2022/10/24 00:58:58;;;;;;;2.42;0.80;;;13.50;99.90;;;;;;5009972;28;20046;-44
2022/10/24 01:01:25;;;;;;;5.93;0.75;;;13.50;99.90;;;;;;5009832;28;20124;-46
2022/10/24 01:03:51;;;;;;;4.75;0.77;;;13.50;99.90;;;;;;5009768;28;20046;-44
2022/10/24 01:06:37;;;;;;;5.65;0.77;;;13.80;99.90;;;;;;5010050;28;20112;-46
2022/10/24 01:09:40;;;;;;;3.00;0.50;;;13.60;99.90;;;;;;5009592;28;20046;-44
2022/10/24 01:12:29;;;;;;;4.32;0.70;;;13.60;99.90;;;;;;5009354;28;20034;-45
2022/10/24 01:15:16;;;;;;;7.68;1.08;;;13.60;99.90;;;;;;5009570;28;20077;-46
2022/10/24 01:17:55;;;;;;;3.53;0.50;;;13.80;99.90;;;;;;5009661;28;20034;-44
2022/10/24 01:20:53;;;;;;;3.67;0.50;;;13.80;99.90;;;;;;5010005;28;20389;-46
2022/10/24 01:23:40;;;;;;;4.22;0.65;;;13.90;99.90;;;;;;5018717;28;20148;-48
2022/10/24 01:26:12;;;;;;;5.07;0.45;;;13.90;99.90;;;;;;5009249;28;20591;-46
2022/10/24 01:28:49;;;;;;;7.33;0.83;;;13.90;99.90;;;;;;5009431;28;20480;-45
2022/10/24 01:31:55;;;;;;;4.43;1.08;;;14.00;99.90;;;;;;5009498;28;20062;-46
2022/10/24 01:34:41;;;;;;;2.80;0.70;;;14.00;99.90;;;;;;5036874;28;20061;-46
2022/10/24 01:37:14;;;;;;;4.32;0.85;;;14.30;99.90;;;;;;5030212;28;20057;-45
2022/10/24 01:39:45;;;;;;;2.63;0.80;;;14.40;99.90;;;;;;5027387;28;20152;-44
2022/10/24 01:42:14;;;;;;;4.72;0.95;;;14.10;99.90;;;;;;5029063;28;20392;-45
2022/10/24 01:44:44;;;;;;;4.95;0.95;;;14.10;99.90;;;;;;5028891;28;20583;-47
2022/10/24 01:47:26;;;;;;;5.45;1.00;;;14.10;99.90;;;;;;5028459;28;20060;-46
2022/10/24 01:50:03;;;;;;;9.43;2.28;;;14.10;99.90;;;;;;5028431;28;20041;-44
2022/10/24 01:52:34;;;;;;;6.68;1.52;;;14.20;99.90;;;;;;5028885;28;20052;-46
2022/10/24 01:55:00;;;;;;;4.25;1.00;;;14.20;99.90;;;;;;5028521;28;20045;-45
2022/10/24 01:57:31;;;;;;;3.65;0.98;;;14.20;99.90;;;;;;5028396;28;20041;-45
2022/10/24 01:59:57;;;;;;;6.07;1.10;;;14.20;99.90;;;;;;5028042;28;20056;-44
2022/10/24 02:02:31;;;;;;;8.07;1.00;;;14.20;99.90;;;;;;5028219;28;20042;-46
2022/10/24 02:05:08;;;;;;;4.65;1.10;;;14.10;99.90;;;;;;5028147;28;20131;-45
2022/10/24 02:07:36;;;;;;;4.85;1.20;;;14.10;99.90;;;;;;5028440;28;20124;-45
2022/10/24 02:10:12;;;;;;;7.97;1.50;;;14.00;99.90;;;;;;5027889;28;20041;-45
2022/10/24 02:12:43;;;;;;;5.25;1.20;;;14.00;99.90;;;;;;5028442;28;20111;-45
2022/10/24 02:15:15;;;;;;;8.43;2.22;;;14.00;99.90;;;;;;5028502;28;20041;-46
2022/10/24 02:17:41;;;;;;;7.75;0.90;;;14.00;99.90;;;;;;5028255;28;20417;-46
2022/10/24 02:20:08;;;;;;;4.85;1.70;;;14.00;99.90;;;;;;5028137;28;20050;-45
2022/10/24 02:22:41;;;;;;;6.80;1.27;;;14.00;99.90;;;;;;5028042;28;20045;-45
2022/10/24 02:25:15;;;;;;;5.32;1.40;;;14.00;99.90;;;;;;5026727;28;20041;-46
2022/10/24 02:27:58;;;;;;;8.43;1.42;;;14.00;99.90;;;;;;5028663;28;20116;-45
2022/10/24 02:30:26;;;;;;;5.88;1.80;;;14.00;99.90;;;;;;5027984;28;20092;-47
2022/10/24 02:32:57;;;;;;;6.03;1.42;;;14.00;99.90;;;;;;5027920;28;20830;-44
2022/10/24 02:35:29;;;;;;;4.50;1.33;;;14.00;99.90;;;;;;5008633;28;20046;-45
2022/10/24 02:38:07;;;;;;;5.93;1.67;;;14.00;99.90;;;;;;5008282;28;20045;-45
2022/10/24 02:40:34;;;;;;;5.07;1.55;;;14.10;99.90;;;;;;5007963;28;20096;-48
2022/10/24 02:43:03;;;;;;;6.32;1.30;;;14.00;99.90;;;;;;5007716;28;20052;-45
2022/10/24 02:45:29;;;;;;;10.05;2.17;;;14.10;99.90;;;;;;5007740;28;20042;-45
2022/10/24 02:47:59;;;;;;;6.68;1.75;;;14.00;99.90;;;;;;5007930;28;20088;-44
2022/10/24 02:50:25;;;;;;;7.55;0.88;;;14.00;99.90;;;;;;5007779;28;20050;-46
2022/10/24 02:52:51;;;;;;;6.90;1.63;;;14.00;99.90;;;;;;5008174;28;20042;-44
2022/10/24 02:55:17;;;;;;;7.68;2.00;;;14.30;99.90;;;;;;5007616;28;20046;-46
2022/10/24 02:57:43;;;;;;;10.02;1.23;;;14.00;99.90;;;;;;5008616;28;20520;-44
2022/10/24 03:00:09;;;;;;;6.38;1.58;;;13.90;99.90;;;;;;5007775;28;20046;-46
2022/10/24 03:02:35;;;;;;;9.05;1.45;;;13.80;99.90;;;;;;5039482;28;20739;-45
2022/10/24 03:05:00;;;;;;;11.00;1.52;;;13.80;99.90;;;;;;5007763;28;20052;-45
2022/10/24 03:07:26;;;;;;;6.10;1.33;;;13.80;99.90;;;;;;5008014;28;20038;-46
2022/10/24 03:09:52;;;;;;;7.65;1.67;;;13.80;99.90;;;;;;5008114;28;20129;-45
2022/10/24 03:12:18;;;;;;;6.68;1.40;;;14.00;99.90;;;;;;5007753;28;20080;-45
2022/10/24 03:14:44;;;;;;;4.15;1.10;;;14.00;99.90;;;;;;5039715;28;20045;-45
2022/10/24 03:17:09;;;;;;;7.80;1.48;;;14.00;99.90;;;;;;5007380;28;20050;-45
2022/10/24 03:19:37;;;;;;;6.30;1.70;;;14.00;99.90;;;;;;5007415;28;20456;-46
2022/10/24 03:22:03;;;;;;;5.88;1.70;;;14.00;99.90;;;;;;5007118;28;20037;-46
2022/10/24 03:24:28;;;;;;;6.03;1.45;;;14.00;99.90;;;;;;5007325;28;20120;-46
2022/10/24 03:26:54;;;;;;;9.38;1.85;;;14.00;99.90;;;;;;5007481;28;20046;-46
2022/10/24 03:29:20;;;;;;;7.28;1.60;;;13.90;99.90;;;;;;5007552;28;20078;-44
2022/10/24 03:31:45;;;;;;;8.85;1.58;;;13.90;99.90;;;;;;5007176;28;20583;-46
2022/10/24 03:34:11;;;;;;;6.07;1.30;;;13.80;99.90;;;;;;5015524;28;20041;-45
2022/10/24 03:36:37;;;;;;;6.55;1.50;;;13.80;99.90;;;;;;5026699;28;20484;-45
2022/10/24 03:39:03;;;;;;;11.75;1.65;;;13.80;99.90;;;;;;5026824;28;20076;-45
2022/10/24 03:41:29;;;;;;;5.97;1.35;;;13.80;99.90;;;;;;5026278;28;20052;-45
2022/10/24 03:43:56;;;;;;;5.45;1.67;;;13.90;99.90;;;;;;5026863;28;20073;-47
2022/10/24 03:46:21;;;;;;;7.82;2.08;;;14.00;99.90;;;;;;5026620;28;20191;-46
2022/10/24 03:48:47;;;;;;;7.22;1.40;;;13.90;99.90;;;;;;5026766;28;20112;-45
2022/10/24 03:51:14;;;;;;;7.70;1.73;;;13.80;99.90;;;;;;5024970;28;20191;-46
2022/10/24 03:53:40;;;;;;;10.45;1.92;;;13.90;99.90;;;;;;5026612;28;20045;-45
2022/10/24 03:56:06;;;;;;;8.13;1.70;;;14.00;99.90;;;;;;5026320;28;20152;-48
2022/10/24 03:58:32;;;;;;;6.10;2.00;;;14.50;99.90;;;;;;5026563;28;20041;-44
2022/10/24 04:00:58;;;;;;;4.93;1.10;;;14.00;99.90;;;;;;5026680;28;20513;-45
2022/10/24 04:03:25;;;;;;;7.13;1.70;;;14.00;99.90;;;;;;5026151;28;20038;-45
2022/10/24 04:05:51;;;;;;;5.55;1.70;;;14.00;99.90;;;;;;5026395;28;20065;-44
2022/10/24 04:08:17;;;;;;;7.18;1.15;;;13.90;99.90;;;;;;5024842;28;20705;-46
2022/10/24 04:10:43;;;;;;;7.40;1.20;;;13.90;99.90;;;;;;5026195;28;20676;-44
2022/10/24 04:13:08;;;;;;;7.72;1.13;;;13.90;99.90;;;;;;5026242;28;20124;-46
2022/10/24 04:15:34;;;;;;;4.57;1.25;;;13.90;99.90;;;;;;5026635;28;20440;-47
2022/10/24 04:18:00;;;;;;;6.90;1.30;;;13.90;99.90;;;;;;5026730;28;20408;-45
2022/10/24 04:20:26;;;;;;;6.78;1.00;;;13.90;99.90;;;;;;5026346;28;20124;-45
2022/10/24 04:22:52;;;;;;;4.50;1.02;;;13.90;99.90;;;;;;5026395;28;20385;-44
2022/10/24 04:25:17;;;;;;;9.00;1.20;;;13.80;99.90;;;;;;5026059;28;20048;-44
2022/10/24 04:27:44;;;;;;;6.28;1.30;;;13.80;99.90;;;;;;5026279;28;20401;-45
2022/10/24 04:30:12;;;;;;;5.50;1.10;;;13.80;99.90;;;;;;5025984;28;20095;-45
2022/10/24 04:32:37;;;;;;;4.80;1.00;;;13.70;99.90;;;;;;5025990;28;20408;-47
2022/10/24 04:35:04;;;;;;;4.57;1.45;;;13.70;99.90;;;;;;5026229;28;20045;-45
2022/10/24 04:37:30;;;;;;;5.47;1.08;;;13.60;99.90;;;;;;5026083;28;20071;-45
2022/10/24 04:39:56;;;;;;;7.88;0.90;;;13.60;99.90;;;;;;5026590;28;20508;-46
2022/10/24 04:42:23;;;;;;;7.95;1.00;;;13.50;99.90;;;;;;5026146;28;20096;-46
2022/10/24 04:44:48;;;;;;;6.68;2.10;;;13.50;99.90;;;;;;5026129;28;20037;-45
2022/10/24 04:47:14;;;;;;;10.50;2.42;;;13.50;99.90;;;;;;5029439;28;20044;-45
2022/10/24 04:49:39;;;;;;;10.27;2.45;;;13.50;99.90;;;;;;5030015;28;20048;-47
2022/10/24 04:52:05;;;;;;;4.80;1.38;;;13.40;99.90;;;;;;5029823;28;20034;-45
2022/10/24 04:54:31;;;;;;;6.97;1.45;;;13.70;99.90;;;;;;5029817;28;20045;-46
2022/10/24 04:56:57;;;;;;;9.25;0.77;;;13.70;99.90;;;;;;5029719;28;20072;-45
2022/10/24 04:59:23;;;;;;;4.95;1.02;;;13.40;99.90;;;;;;5029531;28;20127;-44
2022/10/24 05:01:49;;;;;;;5.03;0.70;;;13.30;99.90;;;;;;5029544;28;20657;-45
2022/10/24 05:04:14;;;;;;;5.15;0.85;;;13.30;99.90;;;;;;5029505;28;20523;-45
2022/10/24 05:06:40;;;;;;;8.18;1.20;;;13.30;99.90;;;;;;5028251;28;20080;-44
2022/10/24 05:09:06;;;;;;;5.00;1.27;;;13.20;99.90;;;;;;5029646;28;20042;-47
2022/10/24 05:11:32;;;;;;;4.90;0.75;;;13.20;99.90;;;;;;5029320;28;20404;-44
2022/10/24 05:13:58;;;;;;;4.22;0.70;;;13.20;99.90;;;;;;5029301;28;20081;-45
2022/10/24 05:16:24;;;;;;;6.35;0.88;;;13.20;99.90;;;;;;5029038;28;20088;-47
2022/10/24 05:18:49;;;;;;;6.78;0.85;;;13.20;99.90;;;;;;5029192;28;20464;-45
2022/10/24 05:21:15;;;;;;;5.40;0.75;;;13.30;99.90;;;;;;5028913;28;20046;-45
2022/10/24 05:23:41;;;;;;;4.03;1.05;;;13.20;99.90;;;;;;5028929;28;20053;-44
2022/10/24 05:26:07;;;;;;;5.65;0.50;;;13.20;99.90;;;;;;5028990;28;20088;-46
2022/10/24 05:28:33;;;;;;;5.35;1.27;;;13.20;99.90;;;;;;5028672;28;20044;-46
2022/10/24 05:30:59;;;;;;;5.30;0.95;;;13.20;99.90;;;;;;5028909;28;20136;-44
2022/10/24 05:33:24;;;;;;;7.93;0.90;;;13.20;99.90;;;;;;5028370;28;20049;-45
2022/10/24 05:35:51;;;;;;;6.72;0.90;;;13.20;99.90;;;;;;5029052;28;20048;-44
2022/10/24 05:38:17;;;;;;;5.25;0.80;;;13.20;99.90;;;;;;5027780;28;20054;-45
2022/10/24 05:40:46;;;;;;;4.38;0.88;;;13.00;99.90;;;;;;5028836;28;20425;-45
2022/10/24 05:43:12;;;;;;;2.85;0.60;;;13.10;99.90;;;;;;5028590;28;20049;-46
2022/10/24 05:45:38;;;;;;;3.63;0.60;;;13.10;99.90;;;;;;5028941;28;20050;-47
2022/10/24 05:48:04;;;;;;;4.47;0.70;;;13.00;99.90;;;;;;5028572;28;20048;-44
2022/10/24 05:50:30;;;;;;;5.97;0.75;;;13.00;99.90;;;;;;5028841;28;20045;-45
2022/10/24 05:52:55;;;;;;;9.93;1.08;;;13.00;99.90;;;;;;5028574;28;20571;-45
2022/10/24 05:55:21;;;;;;;5.32;0.45;;;12.80;99.90;;;;;;5028844;28;20079;-46
2022/10/24 05:57:47;;;;;;;6.95;0.60;;;12.80;99.90;;;;;;5028323;28;20091;-45
2022/10/24 06:00:15;;;;;;;4.28;0.88;;;12.90;99.90;;;;;;5028630;28;20081;-44
2022/10/24 06:02:41;;;;;;;4.00;0.60;;;12.90;99.90;;;;;;5026640;28;20513;-45
2022/10/24 06:05:08;;;;;;;3.25;0.50;;;13.00;99.90;;;;;;5028323;28;20081;-44
2022/10/24 06:07:34;;;;;;;5.53;1.00;;;13.00;99.90;;;;;;5027921;28;20047;-45
2022/10/24 06:10:00;;;;;;;5.75;0.77;;;13.10;99.90;;;;;;5028101;28;20226;-46
2022/10/24 06:12:26;;;;;;;5.55;0.70;;;13.20;99.90;;;;;;5027762;28;20044;-46
2022/10/24 06:14:58;;;;;;;6.70;0.90;;;13.20;99.90;;;;;;5028333;28;20052;-46
2022/10/24 06:17:24;;;;;;;5.88;0.68;;;13.30;99.90;;;;;;5027856;28;20049;-46
2022/10/24 06:19:50;;;;;;;4.93;0.70;;;13.40;99.90;;;;;;5028309;28;20063;-45
2022/10/24 06:22:17;;;;;;;6.30;0.63;;;13.40;99.90;;;;;;5028088;28;20052;-47
2022/10/24 06:24:42;;;;;;;5.85;0.95;;;13.40;99.90;;;;;;5027967;28;20131;-44
2022/10/24 06:27:08;;;;;;;3.28;0.60;;;13.50;99.90;;;;;;5028365;28;20089;-46
2022/10/24 06:29:35;;;;;;;4.32;0.50;;;13.50;99.90;;;;;;5028584;28;20397;-45
2022/10/24 06:32:01;;;;;;;8.10;0.93;;;13.60;99.90;;;;;;5026689;28;20064;-45
2022/10/24 06:34:27;;;;;;;11.52;0.60;;;13.60;99.90;;;;;;5027802;28;20640;-46
2022/10/24 06:36:53;;;;;;;3.63;0.75;;;13.60;99.90;;;;;;5028505;28;20041;-45
2022/10/24 06:39:19;;;;;;;3.70;0.55;;;13.60;99.90;;;;;;5027790;28;20045;-45
2022/10/24 06:41:44;;;;;;;6.60;0.73;;;13.60;99.90;;;;;;5027644;28;20123;-46
2022/10/24 06:44:10;;;;;;;3.60;0.45;;;13.60;99.90;;;;;;5027694;28;20037;-44
2022/10/24 06:46:36;;;;;;;3.53;0.40;;;13.60;99.90;;;;;;5027313;28;20084;-46
2022/10/24 06:49:01;;;;;;;7.05;0.77;;;13.70;99.90;;;;;;5027627;28;20124;-45
2022/10/24 06:51:27;;;;;;;4.63;0.73;;;13.60;99.90;;;;;;5027741;28;20037;-46
2022/10/24 06:53:53;;;;;;;10.05;0.95;;;13.70;99.90;;;;;;5027735;28;20073;-46
2022/10/24 06:56:18;;;;;;;6.45;0.70;;;13.80;99.90;;;;;;5027632;28;20056;-46
2022/10/24 06:58:44;;;;;;;8.95;1.02;;;13.80;99.90;;;;;;5027587;28;20558;-45
2022/10/24 07:01:14;;;;;;;4.32;0.95;;;13.80;99.90;;;;;;5028067;28;20092;-45
2022/10/24 07:03:40;;;;;;;8.68;0.50;;;14.60;99.90;;;;;;5027024;28;20102;-47
2022/10/24 07:06:14;;;;;;;8.02;0.70;;;13.70;99.90;;;;;;5027366;28;20480;-45
2022/10/24 07:08:40;;;;;;;4.70;0.85;;;13.70;99.90;;;;;;5026693;28;20046;-45
2022/10/24 07:11:06;;;;;;;2.47;0.50;;;13.70;99.90;;;;;;5027457;28;20045;-45
2022/10/24 07:13:32;;;;;;;4.10;0.57;;;13.80;99.90;;;;;;5027116;28;20052;-44
2022/10/24 07:15:57;;;;;;;5.82;0.70;;;13.90;99.90;;;;;;5027465;28;20124;-45
2022/10/24 07:18:23;;;;;;;4.72;0.40;;;13.80;99.90;;;;;;5027138;28;20041;-46
2022/10/24 07:20:49;;;;;;;2.00;0.60;;;13.70;99.90;;;;;;5027305;28;20089;-45
2022/10/24 07:23:15;;;;;;;8.27;0.90;;;13.90;99.90;;;;;;5027177;28;20512;-46
2022/10/24 07:25:41;;;;;;;7.32;0.52;;;14.00;99.90;;;;;;5026001;28;20041;-44
2022/10/24 07:28:09;;;;;;;6.32;0.60;;;14.10;99.90;;;;;;5027223;28;20041;-46
2022/10/24 07:30:36;;;;;;;4.60;1.13;;;14.20;99.90;;;;;;5026920;28;20065;-46
2022/10/24 07:33:02;;;;;;;5.97;0.77;;;14.30;99.90;;;;;;5027284;28;20052;-48
2022/10/24 07:35:28;;;;;;;3.97;0.77;;;14.40;99.90;;;;;;5026081;28;20086;-45
2022/10/24 07:37:54;;;;;;;7.10;0.52;;;14.50;99.90;;;;;;5026692;28;20462;-45
2022/10/24 07:40:19;;;;;;;8.70;1.23;;;14.50;99.90;;;;;;5026659;28;20451;-45
2022/10/24 07:42:45;;;;;;;5.03;0.55;;;14.60;99.90;;;;;;5026818;28;20564;-45
2022/10/24 07:45:11;;;;;;;4.78;0.73;;;14.50;99.90;;;;;;5026819;28;20121;-46
2022/10/24 07:47:37;;;;;;;3.72;0.77;;;14.60;99.90;;;;;;5026716;28;20372;-45
2022/10/24 07:50:04;;;;;;;3.80;0.60;;;14.60;99.90;;;;;;5026681;28;20044;-45
2022/10/24 07:52:30;;;;;;;5.70;0.70;;;14.60;99.90;;;;;;5026711;28;20049;-45
2022/10/24 07:54:56;;;;;;;2.65;0.40;;;14.50;99.90;;;;;;5026368;28;20103;-45
2022/10/24 07:57:22;;;;;;;4.82;0.73;;;14.40;99.90;;;;;;5026583;28;20063;-47
2022/10/24 07:59:48;;;;;;;3.50;0.55;;;14.40;99.90;;;;;;5026330;28;20503;-46
2022/10/24 08:02:14;;;;;;;6.35;0.85;;;14.40;99.90;;;;;;5026336;28;20045;-45
2022/10/24 08:04:40;;;;;;;4.05;0.50;;;14.40;99.90;;;;;;5026419;28;20374;-46
2022/10/24 08:07:11;;;;;;;5.55;0.90;;;14.80;99.90;;;;;;5025244;28;20041;-46
2022/10/24 08:09:42;;;;;;;5.25;1.30;;;14.40;99.90;;;;;;5026127;28;20564;-46
2022/10/24 08:12:08;;;;;;;5.95;0.50;;;14.50;99.90;;;;;;5026543;28;20103;-45
2022/10/24 08:14:35;;;;;;;5.50;0.88;;;14.80;99.90;;;;;;5026339;28;20065;-45
2022/10/24 08:17:01;;;;;;;7.05;0.93;;;14.90;99.90;;;;;;5026019;28;20045;-45
2022/10/24 08:19:27;;;;;;;4.15;0.40;;;15.10;99.90;;;;;;5026281;28;20049;-45
2022/10/24 08:21:52;;;;;;;6.38;0.52;;;15.20;99.90;;;;;;5029376;28;20072;-46
2022/10/24 08:24:18;;;;;;;5.53;0.45;;;15.20;99.90;;;;;;5030251;28;20046;-47
2022/10/24 08:26:44;;;;;;;6.38;0.75;;;15.10;99.90;;;;;;5029773;28;20456;-45
2022/10/24 08:29:10;;;;;;;6.40;0.32;;;15.10;99.90;;;;;;5013527;28;20048;-45
2022/10/24 08:31:37;;;;;;;8.32;0.98;;;15.30;99.90;;;;;;5026223;28;20617;-45
2022/10/24 08:34:04;;;;;;;5.28;0.70;;;15.60;99.90;;;;;;5025357;28;20080;-46
2022/10/24 08:36:33;;;;;;;8.50;0.80;;;15.40;99.90;;;;;;5027235;28;20777;-46
2022/10/24 08:39:00;;;;;;;9.35;0.85;;;15.80;99.90;;;;;;5027665;28;20493;-48
2022/10/24 08:41:49;;;;;;;5.55;0.40;;;15.70;99.90;;;;;;5025747;28;20116;-48
2022/10/24 08:44:41;;;;;;;5.03;0.50;;;15.80;99.90;;;;;;5027625;28;20075;-47
2022/10/24 08:47:17;;;;;;;5.07;0.30;;;15.90;99.90;;;;;;5024691;28;20044;-47
2022/10/24 08:50:14;;;;;;;6.90;0.95;;;16.00;99.90;;;;;;5027209;28;20121;-47
2022/10/24 08:52:46;;;;;;;6.45;0.98;;;16.10;99.90;;;;;;5027217;28;20523;-47
2022/10/24 08:55:16;;;;;;;4.43;0.65;;;16.10;99.90;;;;;;5027272;28;20479;-45
2022/10/24 08:57:46;;;;;;;5.75;0.38;;;16.20;99.90;;;;;;5026973;28;20037;-46
2022/10/24 09:00:21;;;;;;;9.15;0.90;;;16.20;99.90;;;;;;5027229;28;20816;-48
2022/10/24 09:02:58;;;;;;;6.72;1.02;;;16.30;99.90;;;;;;5024896;28;20726;-47
2022/10/24 09:05:41;;;;;;;5.57;1.02;;;16.30;99.90;;;;;;5026689;28;20415;-46
2022/10/24 09:08:36;;;;;;;4.63;0.60;;;16.40;99.90;;;;;;5026244;28;20109;-49
2022/10/24 09:11:04;;;;;;;6.90;0.90;;;16.50;99.90;;;;;;5022010;28;20115;-44
2022/10/24 09:13:34;;;;;;;4.65;0.63;;;16.60;99.90;;;;;;5026465;28;20045;-46
2022/10/24 09:16:00;;;;;;;7.13;0.93;;;16.60;99.90;;;;;;5025888;28;20388;-46
2022/10/24 09:18:43;;;;;;;6.30;0.77;;;16.60;99.90;;;;;;5024804;28;20991;-46
2022/10/24 09:21:12;;;;;;;8.82;0.52;;;16.70;99.90;;;;;;5024804;28;20057;-45
2022/10/24 09:23:38;;;;;;;8.43;0.65;;;16.60;99.90;;;;;;5026190;28;20037;-46
2022/10/24 09:26:07;;;;;;;8.10;1.15;;;16.70;99.90;;;;;;5026338;28;20037;-47
2022/10/24 09:28:36;;;;;;;2.88;0.40;;;16.70;99.90;;;;;;5026335;28;20033;-45
2022/10/24 09:31:31;;;;;;;7.90;0.60;;;16.80;99.90;;;;;;5006814;28;20052;-45
2022/10/24 09:33:59;;;;;;;4.65;0.50;;;16.70;99.90;;;;;;5002560;28;20144;-51
2022/10/24 09:36:29;;;;;;;6.32;0.68;;;16.70;99.90;;;;;;5008927;28;20064;-50
2022/10/24 09:38:55;;;;;;;7.95;0.50;;;16.60;99.90;;;;;;5015414;28;20053;-39
2022/10/24 09:41:27;;;;;;;6.00;0.60;;;16.60;99.90;;;;;;5019398;28;20482;-39
2022/10/24 09:43:58;;;;;;;10.20;0.82;;;16.60;99.90;;;;;;5018795;28;20039;-40
2022/10/24 09:46:40;;;;;;;6.33;0.87;;;16.70;99.90;;;;;;5050459;28;20377;-42
2022/10/24 09:49:13;;;;;;;8.65;0.77;;;16.70;99.90;;;;;;5016959;28;20045;-40
2022/10/24 09:51:44;;;;;;;6.22;0.70;;;16.70;99.90;;;;;;5018748;28;20047;-39
2022/10/24 09:54:19;;;;;;;5.57;1.67;;;16.80;99.90;;;;;;5018780;28;20128;-39
2022/10/24 09:56:47;;;;;;;6.43;0.60;;;17.20;99.90;;;;;;5018790;28;20287;-41
2022/10/24 09:59:37;;;;;;;6.07;0.47;;;16.90;99.90;;;;;;5019082;28;20048;-39
2022/10/24 10:02:09;;;;;;;4.65;0.70;;;16.90;99.90;;;;;;5019293;28;20450;-41
2022/10/24 10:04:36;;;;;;;6.03;0.50;;;17.10;99.90;;;;;;5021452;28;20124;-41
2022/10/24 10:07:09;;;;;;;8.75;0.98;;;17.10;99.90;;;;;;5019694;28;20041;-46
2022/10/24 10:09:41;;;;;;;5.80;0.70;;;17.20;99.90;;;;;;5019896;28;20033;-55
2022/10/24 10:12:26;;;;;;;3.08;0.40;;;17.30;99.90;;;;;;5019585;28;20530;-53
2022/10/24 10:14:52;;;;;;;6.03;0.70;;;17.20;99.90;;;;;;5016743;28;20045;-53
2022/10/24 10:17:24;;;;;;;5.65;0.40;;;17.30;99.90;;;;;;5020659;28;20380;-55
2022/10/24 10:19:51;;;;;;;;;;;17.30;99.90;;;;;;5050994;28;20128;-51
2022/10/24 10:22:26;;;;;;;5.57;0.50;;;17.20;99.90;;;;;;5019979;28;20031;-56
2022/10/24 10:24:53;;;;;;;5.40;0.35;;;17.10;99.90;;;;;;5018354;28;20052;-40
2022/10/24 10:27:35;;;;;;;5.35;0.47;;;17.10;99.90;;;;;;5018630;28;20120;-43
2022/10/24 10:30:07;;;;;;;5.25;0.30;;;17.30;99.90;;;;;;5018859;28;20064;-37
2022/10/24 10:33:07;;;;;;;4.40;0.30;;;17.30;99.90;;;;;;5031716;28;20099;-38
2022/10/24 10:35:58;;;;;;;9.00;0.38;;;17.50;99.90;;;;;;5034272;28;20453;-40
2022/10/24 10:38:33;;;;;;;6.13;0.30;;;17.80;99.90;;;;;;5036973;28;20096;-40
2022/10/24 10:41:10;;;;;;;3.88;0.77;;;17.80;99.90;;;;;;5037114;28;20549;-42
2022/10/24 10:44:13;;;;;;;4.70;0.30;;;17.80;99.90;;;;;;5036426;28;20842;-53
2022/10/24 10:46:41;;;;;;;2.78;0.30;;;17.70;99.90;;;;;;5037512;28;20514;-44
2022/10/24 10:49:30;;;;;;;8.90;0.70;;;17.70;99.90;;;;;;5069477;28;20088;-46
2022/10/24 10:52:35;;;;;;;6.65;0.60;;;17.70;99.90;;;;;;5032009;28;20044;-42
2022/10/24 10:55:45;;;;;;;6.65;0.40;;;17.70;99.90;;;;;;5013959;28;20041;-55
2022/10/24 10:58:46;;;;;;;5.03;0.40;;;17.70;99.90;;;;;;5033879;28;20106;-52
2022/10/24 11:01:30;;;;;;;6.85;0.50;;;17.80;99.90;;;;;;5017323;28;20061;-44
2022/10/24 11:04:17;;;;;;;7.00;0.40;;;17.70;99.90;;;;;;5037635;28;20084;-41
2022/10/24 11:06:54;;;;;;;5.95;0.70;;;17.60;99.90;;;;;;5037769;28;20039;-47
2022/10/24 11:09:36;;;;;;;2.38;0.10;;;17.50;99.90;;;;;;5037943;28;20479;-41
2022/10/24 11:12:10;;;;;;;6.93;0.50;;;17.40;99.90;;;;;;5037479;28;20675;-43
2022/10/24 11:15:03;;;;;;;6.05;0.40;;;17.30;99.90;;;;;;5037506;28;20040;-41
2022/10/24 11:17:37;;;;;;;7.10;0.40;;;17.20;99.90;;;;;;5037078;28;20133;-49
2022/10/24 11:20:36;;;;;;;6.40;0.30;;;17.30;99.90;;;;;;5035167;28;20043;-45
2022/10/24 11:23:13;;;;;;;7.15;0.50;;;17.30;99.90;;;;;;5037295;28;20029;-45
2022/10/24 11:25:45;;;;;;;2.90;0.65;;;17.20;99.90;;;;;;5037629;28;20072;-45
2022/10/24 11:28:38;;;;;;;7.40;0.25;;;17.20;99.90;;;;;;5037513;28;20036;-38
2022/10/24 11:31:22;;;;;;;6.53;0.63;;;17.20;99.90;;;;;;5017992;28;20682;-43
2022/10/24 11:33:57;;;;;;;2.97;0.20;;;17.20;99.90;;;;;;5033569;28;20048;-45
2022/10/24 11:36:32;;;;;;;4.30;0.32;;;17.20;99.90;;;;;;5034921;28;20049;-45
2022/10/24 11:39:06;;;;;;;6.47;0.50;;;17.30;99.90;;;;;;5036402;28;20077;-45
2022/10/24 11:41:52;;;;;;;5.80;0.30;;;17.40;99.90;;;;;;5037400;28;20118;-43
2022/10/24 11:44:32;;;;;;;4.78;0.20;;;17.50;99.90;;;;;;5036662;28;20048;-49
2022/10/24 11:47:11;;;;;;;6.03;0.50;;;17.50;99.90;;;;;;5036252;28;20029;-40
2022/10/24 11:49:42;;;;;;;6.40;0.40;;;17.50;99.90;;;;;;5036856;28;20039;-46
2022/10/24 11:52:19;;;;;;;2.95;0.30;;;17.40;99.90;;;;;;5037052;28;20175;-48
2022/10/24 11:55:04;;;;;;;4.03;0.52;;;17.40;99.90;;;;;;5031555;28;20067;-44
2022/10/24 11:57:32;;;;;;;4.63;0.40;;;17.50;99.90;;;;;;5033290;28;20099;-40
2022/10/24 11:59:58;;;;;;;3.47;0.28;;;17.70;99.90;;;;;;5032698;28;20035;-39
2022/10/24 12:02:30;;;;;;;7.30;0.43;;;17.60;99.90;;;;;;5036304;28;20056;-43
2022/10/24 12:05:17;;;;;;;4.07;0.68;;;17.60;99.90;;;;;;5037002;28;20137;-41
2022/10/24 12:08:12;;;;;;;4.72;0.68;;;17.50;99.90;;;;;;5036523;28;20037;-40
2022/10/24 12:11:05;;;;;;;3.47;0.55;;;17.50;99.90;;;;;;5035911;28;20041;-37
2022/10/24 12:13:46;;;;;;;5.20;0.32;;;17.50;99.90;;;;;;5036019;28;20078;-39
2022/10/24 12:16:12;;;;;;;2.05;0.17;;;17.60;99.90;;;;;;5032802;28;20045;-39
2022/10/24 12:18:48;;;;;;;5.32;0.50;;;17.50;99.90;;;;;;5032358;28;20147;-40
2022/10/24 12:21:19;;;;;;;5.75;0.40;;;17.50;99.90;;;;;;5036598;28;20083;-49
2022/10/24 12:23:54;;;;;;;5.90;0.40;;;17.40;99.90;;;;;;5036480;28;20033;-44
2022/10/24 12:26:34;;;;;;;6.68;0.40;;;17.30;99.90;;;;;;5036455;28;20079;-43
2022/10/24 12:29:22;;;;;;;5.85;0.22;;;17.20;99.90;;;;;;5036155;28;20032;-45
2022/10/24 12:31:48;;;;;;;4.45;0.32;;;17.20;99.90;;;;;;5011285;28;20495;-45
2022/10/24 12:34:14;;;;;;;3.47;0.20;;;17.10;99.90;;;;;;5030615;28;20709;-45
2022/10/24 12:37:03;;;;;;;4.07;0.20;;;17.00;99.90;;;;;;5034935;28;20033;-49
2022/10/24 12:39:35;;;;;;;5.03;0.25;;;17.00;99.90;;;;;;5036799;28;20082;-41
2022/10/24 12:42:00;;;;;;;6.35;1.02;;;17.10;99.90;;;;;;5036943;28;20056;-46
2022/10/24 12:44:32;;;;;;;3.10;0.70;;;17.10;99.90;;;;;;5036222;28;20033;-41
2022/10/24 12:46:59;;;;;;;;;;;17.00;99.90;;;;;;5036036;28;20132;-41
2022/10/24 12:49:32;;;;;;;4.60;0.50;;;17.00;99.90;;;;;;5034713;28;20024;-42
2022/10/24 12:52:18;;;;;;;4.07;0.85;;;17.00;99.90;;;;;;5036055;28;20433;-41
2022/10/24 12:54:45;;;;;;;6.55;0.32;;;16.90;99.90;;;;;;5037386;28;20171;-46
2022/10/24 12:57:10;;;;;;;3.00;0.47;;;16.90;99.90;;;;;;5039616;28;20528;-46
2022/10/24 12:59:57;;;;;;;5.88;0.40;;;17.00;99.90;;;;;;5036511;28;20033;-43
2022/10/24 13:02:35;;;;;;;5.30;0.52;;;17.00;99.90;;;;;;5035295;28;20936;-50
2022/10/24 13:05:28;;;;;;;4.55;0.40;;;16.90;99.90;;;;;;5031500;28;20112;-46
2022/10/24 13:08:02;;;;;;;3.70;0.22;;;16.90;99.90;;;;;;5040121;28;20052;-43
2022/10/24 13:10:47;;;;;;;4.38;0.57;;;16.80;99.90;;;;;;5040241;28;20055;-36